Time;durP1;ratioP1;P1;durP2;ratioP2;P2;SDS_P1;SDS_P2;PMS_P1;PMS_P2;Temp;Humidity;BMP_temperature;BMP_pressure;BME280_temperature;BME280_humidity;BME280_pressure;Samples;Min_cycle;Max_cycle;Signal;HPM_P1;HPM_P2
2021/04/20 00:00:13;;;;;;;2.42;1.27;;;21.90;39.00;;;;;;5031521;28;20037;-77
2021/04/20 00:02:40;;;;;;;3.85;1.27;;;21.90;38.90;;;;;;5051594;28;20029;-77
2021/04/20 00:05:08;;;;;;;2.42;1.17;;;21.90;39.00;;;;;;5046865;28;20021;-77
2021/04/20 00:07:33;;;;;;;2.10;1.17;;;21.90;39.00;;;;;;5049630;28;20028;-77
2021/04/20 00:09:59;;;;;;;2.13;1.30;;;21.90;38.90;;;;;;5042302;28;20036;-77
2021/04/20 00:12:24;;;;;;;1.45;1.20;;;21.90;38.90;;;;;;5050585;28;20024;-76
2021/04/20 00:14:50;;;;;;;1.60;1.45;;;21.90;39.00;;;;;;5026917;28;20080;-77
2021/04/20 00:17:16;;;;;;;1.73;1.30;;;21.90;39.00;;;;;;5036912;28;20097;-79
2021/04/20 00:19:41;;;;;;;1.38;1.27;;;21.80;38.90;;;;;;5036368;28;20040;-78
2021/04/20 00:22:07;;;;;;;2.30;1.35;;;21.80;38.90;;;;;;5054048;28;20093;-77
2021/04/20 00:24:33;;;;;;;2.95;1.30;;;21.80;39.00;;;;;;5050159;28;20059;-78
2021/04/20 00:26:58;;;;;;;1.60;0.98;;;21.80;38.90;;;;;;5053541;28;20033;-78
2021/04/20 00:29:24;;;;;;;1.92;1.33;;;21.80;38.90;;;;;;5053176;28;20029;-76
2021/04/20 00:31:49;;;;;;;1.23;1.10;;;21.80;39.00;;;;;;5036316;28;20059;-78
2021/04/20 00:34:15;;;;;;;1.45;1.15;;;21.80;39.00;;;;;;5051304;28;20078;-76
2021/04/20 00:36:40;;;;;;;2.03;1.35;;;21.80;39.00;;;;;;5036038;28;20037;-78
2021/04/20 00:39:06;;;;;;;1.30;1.20;;;21.80;38.90;;;;;;5051708;28;20498;-78
2021/04/20 00:41:32;;;;;;;1.83;1.38;;;21.80;39.00;;;;;;5048030;28;20033;-77
2021/04/20 00:43:57;;;;;;;1.83;0.95;;;21.80;39.00;;;;;;5051852;28;20042;-77
2021/04/20 00:46:24;;;;;;;1.20;1.10;;;21.80;39.50;;;;;;5046503;28;20021;-78
2021/04/20 00:48:50;;;;;;;1.80;1.50;;;21.80;38.90;;;;;;5051000;28;20021;-77
2021/04/20 00:51:20;;;;;;;1.98;1.67;;;21.70;38.90;;;;;;5049135;28;20094;-76
2021/04/20 00:53:46;;;;;;;1.50;1.40;;;21.70;38.90;;;;;;5034421;28;20043;-77
2021/04/20 00:56:14;;;;;;;1.85;1.05;;;21.70;38.90;;;;;;5043048;28;20021;-78
2021/04/20 00:58:39;;;;;;;1.52;1.05;;;21.70;38.90;;;;;;5034877;28;20098;-78
2021/04/20 01:01:05;;;;;;;3.95;1.48;;;21.70;38.90;;;;;;5051890;28;20029;-77
2021/04/20 01:03:31;;;;;;;1.15;1.00;;;21.70;38.90;;;;;;5045372;28;20033;-77
2021/04/20 01:05:57;;;;;;;1.67;1.17;;;21.70;38.90;;;;;;5045498;28;20486;-77
2021/04/20 01:08:24;;;;;;;2.13;0.95;;;21.70;38.90;;;;;;5050255;28;20108;-77
2021/04/20 01:10:54;;;;;;;3.28;1.15;;;21.70;39.00;;;;;;5056043;28;20041;-78
2021/04/20 01:13:25;;;;;;;1.30;0.90;;;21.70;38.90;;;;;;5052933;28;20063;-76
2021/04/20 01:15:52;;;;;;;1.70;1.20;;;21.70;38.90;;;;;;5032049;28;20025;-77
2021/04/20 01:18:27;;;;;;;1.55;1.10;;;21.70;38.90;;;;;;5055175;28;20029;-76
2021/04/20 01:20:58;;;;;;;1.73;1.63;;;21.60;38.90;;;;;;5048618;28;20100;-76
2021/04/20 01:23:48;;;;;;;2.15;1.30;;;21.60;38.80;;;;;;5043846;28;20021;-76
2021/04/20 01:26:14;;;;;;;2.28;1.38;;;21.60;38.80;;;;;;5048678;28;20032;-77
2021/04/20 01:28:42;;;;;;;2.22;1.27;;;21.70;38.90;;;;;;5056335;28;20126;-76
2021/04/20 01:31:08;;;;;;;1.92;1.15;;;21.60;39.30;;;;;;5052718;28;20032;-78
2021/04/20 01:33:33;;;;;;;1.38;1.27;;;21.60;38.90;;;;;;5035292;28;20032;-76
2021/04/20 01:35:59;;;;;;;1.33;1.23;;;21.60;38.80;;;;;;5048225;28;20037;-76
2021/04/20 01:38:28;;;;;;;1.45;1.17;;;21.60;38.90;;;;;;5035339;28;20104;-77
2021/04/20 01:40:53;;;;;;;2.97;1.40;;;21.60;38.90;;;;;;5034342;28;20041;-77
2021/04/20 01:43:19;;;;;;;1.30;1.20;;;21.60;38.90;;;;;;5025457;28;20037;-77
2021/04/20 01:45:45;;;;;;;1.40;1.10;;;21.60;38.80;;;;;;5052174;28;20081;-76
2021/04/20 01:48:11;;;;;;;2.72;1.60;;;21.60;38.90;;;;;;5029850;28;20033;-76
2021/04/20 01:50:41;;;;;;;1.65;1.20;;;21.60;38.80;;;;;;5041214;28;20037;-77
2021/04/20 01:53:07;;;;;;;4.82;1.20;;;21.60;38.90;;;;;;5034094;28;20032;-77
2021/04/20 01:55:34;;;;;;;2.60;1.52;;;21.60;38.90;;;;;;5051246;28;20124;-76
2021/04/20 01:58:00;;;;;;;1.50;1.30;;;21.50;38.90;;;;;;5035638;28;20390;-77
2021/04/20 02:00:26;;;;;;;2.47;1.13;;;21.60;38.90;;;;;;5031580;28;20037;-77
2021/04/20 02:02:52;;;;;;;1.60;1.40;;;21.50;38.80;;;;;;5049362;28;20140;-76
2021/04/20 02:05:19;;;;;;;3.25;1.70;;;21.50;38.80;;;;;;5051286;28;20108;-76
2021/04/20 02:07:45;;;;;;;3.22;1.55;;;21.50;38.80;;;;;;5050707;28;20064;-77
2021/04/20 02:10:13;;;;;;;1.48;1.20;;;21.50;38.90;;;;;;5036506;28;20033;-77
2021/04/20 02:12:40;;;;;;;1.52;1.10;;;21.50;38.90;;;;;;5045070;28;20841;-77
2021/04/20 02:15:09;;;;;;;1.58;1.30;;;21.50;38.80;;;;;;5044872;28;20033;-76
2021/04/20 02:17:35;;;;;;;1.88;1.40;;;21.50;38.80;;;;;;5053098;28;20055;-77
2021/04/20 02:20:05;;;;;;;1.85;1.33;;;21.50;38.80;;;;;;5041006;28;20230;-77
2021/04/20 02:22:41;;;;;;;1.30;1.02;;;21.50;38.80;;;;;;5044073;28;20065;-77
2021/04/20 02:25:10;;;;;;;1.95;1.58;;;21.50;38.90;;;;;;5039609;28;20131;-77
2021/04/20 02:27:36;;;;;;;1.20;1.00;;;21.50;38.80;;;;;;5044080;28;20033;-78
2021/04/20 02:30:05;;;;;;;1.73;1.38;;;21.50;38.80;;;;;;5045254;28;20037;-77
2021/04/20 02:32:32;;;;;;;1.58;1.17;;;21.50;38.90;;;;;;5051304;28;20040;-78
2021/04/20 02:35:03;;;;;;;1.45;1.13;;;21.50;38.80;;;;;;5031150;28;20044;-77
2021/04/20 02:37:29;;;;;;;1.92;1.58;;;21.50;38.80;;;;;;5032318;28;20029;-78
2021/04/20 02:39:55;;;;;;;1.15;1.05;;;21.50;38.80;;;;;;5054116;28;20037;-77
2021/04/20 02:42:21;;;;;;;1.45;1.23;;;21.50;38.80;;;;;;5033504;28;20167;-78
2021/04/20 02:44:47;;;;;;;2.38;1.27;;;21.40;38.70;;;;;;5051852;28;20025;-78
2021/04/20 02:47:13;;;;;;;1.35;1.10;;;21.40;38.70;;;;;;5029823;28;20450;-77
2021/04/20 02:49:39;;;;;;;1.55;1.40;;;21.40;38.80;;;;;;5052950;28;20205;-77
2021/04/20 02:52:05;;;;;;;2.33;1.75;;;21.40;38.80;;;;;;5048538;28;20020;-77
2021/04/20 02:54:31;;;;;;;3.80;1.70;;;21.40;38.70;;;;;;5048336;28;20104;-77
2021/04/20 02:56:59;;;;;;;1.83;1.38;;;21.40;38.70;;;;;;5041817;28;20624;-78
2021/04/20 02:59:26;;;;;;;1.85;1.55;;;21.40;38.70;;;;;;5052314;28;20051;-77
2021/04/20 03:01:52;;;;;;;1.63;1.05;;;21.40;38.70;;;;;;5035348;28;20138;-76
2021/04/20 03:04:18;;;;;;;5.60;1.60;;;21.40;38.70;;;;;;5051565;28;20120;-77
2021/04/20 03:06:45;;;;;;;1.20;1.10;;;21.40;38.70;;;;;;5045595;28;20103;-77
2021/04/20 03:09:13;;;;;;;3.88;1.58;;;21.40;38.70;;;;;;5024750;28;20503;-77
2021/04/20 03:11:49;;;;;;;3.30;1.27;;;21.40;38.70;;;;;;5048934;28;20042;-78
2021/04/20 03:14:15;;;;;;;2.97;1.45;;;21.40;38.70;;;;;;5032284;28;20390;-78
2021/04/20 03:16:41;;;;;;;2.35;1.60;;;21.40;38.80;;;;;;5050726;28;20028;-77
2021/04/20 03:19:07;;;;;;;2.17;1.63;;;21.40;38.70;;;;;;5051591;28;20029;-77
2021/04/20 03:21:35;;;;;;;1.75;1.60;;;21.30;38.70;;;;;;5051803;28;20047;-77
2021/04/20 03:24:03;;;;;;;2.45;1.42;;;21.40;38.70;;;;;;5036281;28;20457;-76
2021/04/20 03:26:40;;;;;;;1.95;1.55;;;21.30;38.70;;;;;;5039375;28;20045;-77
2021/04/20 03:29:08;;;;;;;1.77;1.25;;;21.40;38.70;;;;;;5045531;28;20079;-76
2021/04/20 03:31:41;;;;;;;1.55;1.45;;;21.40;38.70;;;;;;5044981;28;20032;-78
2021/04/20 03:34:32;;;;;;;2.38;1.60;;;21.30;38.70;;;;;;5018473;28;20025;-76
2021/04/20 03:37:11;;;;;;;1.98;1.13;;;21.40;38.80;;;;;;5048819;28;20068;-77
2021/04/20 03:39:39;;;;;;;2.05;1.55;;;21.30;39.20;;;;;;5050299;28;20064;-78
2021/04/20 03:42:11;;;;;;;2.08;1.60;;;21.30;38.70;;;;;;5046402;28;20061;-76
2021/04/20 03:44:44;;;;;;;2.35;1.15;;;21.30;38.70;;;;;;5025253;28;20026;-78
2021/04/20 03:47:19;;;;;;;2.17;1.48;;;21.30;38.70;;;;;;5045161;28;20026;-76
2021/04/20 03:49:47;;;;;;;1.42;1.33;;;21.30;38.70;;;;;;5042271;28;20070;-78
2021/04/20 03:52:33;;;;;;;3.47;2.10;;;21.30;38.70;;;;;;5031253;28;20059;-78
2021/04/20 03:55:00;;;;;;;2.85;1.45;;;21.30;38.70;;;;;;5041356;28;20470;-77
2021/04/20 03:57:28;;;;;;;1.65;0.95;;;21.30;38.70;;;;;;5046068;28;20029;-78
2021/04/20 03:59:58;;;;;;;2.03;1.50;;;21.30;38.70;;;;;;5031527;28;20116;-76
2021/04/20 04:02:25;;;;;;;1.55;1.20;;;21.30;38.70;;;;;;5029460;28;20032;-77
2021/04/20 04:04:52;;;;;;;2.13;1.48;;;21.30;38.70;;;;;;5025865;28;20051;-77
2021/04/20 04:07:20;;;;;;;1.80;1.42;;;21.20;38.70;;;;;;5046967;28;20070;-77
2021/04/20 04:09:48;;;;;;;2.03;1.80;;;21.30;38.70;;;;;;5050567;28;20040;-77
2021/04/20 04:12:16;;;;;;;2.60;1.60;;;21.30;38.70;;;;;;5033805;28;20029;-76
2021/04/20 04:14:43;;;;;;;1.65;1.55;;;21.30;38.70;;;;;;5045363;28;20444;-76
2021/04/20 04:17:12;;;;;;;1.63;1.10;;;21.20;38.70;;;;;;5041606;28;20036;-75
2021/04/20 04:19:44;;;;;;;1.40;1.25;;;21.20;38.70;;;;;;5022280;28;20029;-77
2021/04/20 04:22:18;;;;;;;1.70;1.60;;;21.20;38.60;;;;;;5039217;28;20457;-76
2021/04/20 04:24:54;;;;;;;1.65;1.27;;;21.30;38.70;;;;;;5041183;28;20036;-78
2021/04/20 04:27:28;;;;;;;1.95;1.65;;;21.20;38.70;;;;;;5040189;28;20052;-77
2021/04/20 04:30:00;;;;;;;1.50;1.27;;;21.20;38.60;;;;;;5047724;28;20033;-78
2021/04/20 04:32:29;;;;;;;1.98;1.70;;;21.20;38.60;;;;;;5046365;28;20549;-79
2021/04/20 04:34:56;;;;;;;1.75;1.55;;;21.20;38.60;;;;;;5045664;28;20045;-78
2021/04/20 04:37:23;;;;;;;2.15;1.52;;;21.20;38.60;;;;;;5042329;28;20032;-78
2021/04/20 04:39:49;;;;;;;2.03;1.77;;;21.20;38.60;;;;;;5046305;28;20037;-78
2021/04/20 04:42:15;;;;;;;1.98;1.83;;;21.20;38.60;;;;;;5047797;28;20086;-78
2021/04/20 04:44:41;;;;;;;1.77;1.65;;;21.20;38.60;;;;;;5045730;28;20399;-77
2021/04/20 04:47:10;;;;;;;1.88;1.48;;;21.20;38.60;;;;;;5045476;28;20025;-77
2021/04/20 04:49:37;;;;;;;1.90;1.80;;;21.20;38.70;;;;;;5041467;28;20040;-77
2021/04/20 04:52:04;;;;;;;2.35;2.05;;;21.20;38.60;;;;;;5032728;28;20147;-76
2021/04/20 04:54:31;;;;;;;1.67;1.55;;;21.20;38.70;;;;;;5035130;28;20037;-77
2021/04/20 04:57:00;;;;;;;1.85;1.75;;;21.20;38.60;;;;;;5046597;28;20400;-76
2021/04/20 04:59:27;;;;;;;1.48;1.38;;;21.20;38.60;;;;;;5050872;28;20025;-76
2021/04/20 05:01:54;;;;;;;2.30;2.03;;;21.20;38.60;;;;;;5045496;28;20049;-76
2021/04/20 05:04:23;;;;;;;2.53;1.98;;;21.10;38.50;;;;;;5031891;28;20044;-76
2021/04/20 05:06:51;;;;;;;1.60;1.50;;;21.20;38.60;;;;;;5026883;28;20037;-77
2021/04/20 05:09:22;;;;;;;2.00;1.73;;;21.10;38.50;;;;;;5048289;28;20514;-78
2021/04/20 05:11:50;;;;;;;1.90;1.63;;;21.10;38.60;;;;;;5045615;28;20037;-78
2021/04/20 05:14:20;;;;;;;1.70;1.38;;;21.10;38.60;;;;;;5026304;28;20025;-78
2021/04/20 05:16:51;;;;;;;3.90;1.80;;;21.10;38.60;;;;;;5048284;28;20354;-77
2021/04/20 05:19:24;;;;;;;1.90;1.58;;;21.10;38.60;;;;;;5048375;28;20295;-77
2021/04/20 05:21:50;;;;;;;2.17;1.80;;;21.10;38.60;;;;;;5031903;28;20036;-76
2021/04/20 05:24:20;;;;;;;2.22;1.85;;;21.10;38.60;;;;;;5030045;28;20383;-77
2021/04/20 05:26:46;;;;;;;2.50;2.30;;;21.10;38.60;;;;;;5049669;28;20021;-76
2021/04/20 05:29:12;;;;;;;2.17;1.90;;;21.10;38.60;;;;;;5039974;28;20044;-77
2021/04/20 05:31:37;;;;;;;1.73;1.50;;;21.10;38.60;;;;;;5018346;28;20033;-78
2021/04/20 05:34:05;;;;;;;2.45;2.25;;;21.10;38.60;;;;;;5046279;28;20056;-77
2021/04/20 05:36:33;;;;;;;3.92;1.90;;;21.10;38.60;;;;;;5048735;28;20033;-77
2021/04/20 05:39:03;;;;;;;1.52;1.35;;;21.10;38.60;;;;;;5048621;28;20036;-77
2021/04/20 05:41:31;;;;;;;1.83;1.73;;;21.10;38.60;;;;;;5024087;28;20033;-76
2021/04/20 05:43:59;;;;;;;2.80;1.73;;;21.10;38.60;;;;;;5038454;28;20029;-78
2021/04/20 05:46:24;;;;;;;2.15;1.95;;;21.10;38.60;;;;;;5046050;28;20033;-76
2021/04/20 05:48:52;;;;;;;1.60;1.35;;;21.10;38.60;;;;;;5034946;28;20025;-77
2021/04/20 05:51:19;;;;;;;2.22;1.80;;;21.10;38.60;;;;;;5048109;28;20017;-78
2021/04/20 05:53:46;;;;;;;1.85;1.63;;;21.10;38.70;;;;;;5030447;28;20030;-77
2021/04/20 05:56:15;;;;;;;1.70;1.60;;;21.10;38.80;;;;;;5033007;28;20184;-76
2021/04/20 05:58:41;;;;;;;2.60;2.03;;;21.20;38.80;;;;;;5031433;28;20032;-77
2021/04/20 06:01:07;;;;;;;2.63;2.00;;;21.20;38.70;;;;;;5015321;28;20033;-77
2021/04/20 06:03:34;;;;;;;2.00;1.55;;;21.40;38.50;;;;;;5057196;28;20168;-76
2021/04/20 06:06:04;;;;;;;4.80;2.78;;;21.50;38.20;;;;;;5050919;28;20051;-77
2021/04/20 06:08:35;;;;;;;2.65;1.88;;;21.70;38.10;;;;;;5056623;28;20349;-78
2021/04/20 06:11:03;;;;;;;2.85;2.25;;;21.80;37.90;;;;;;5028115;28;20030;-77
2021/04/20 06:13:29;;;;;;;3.47;1.73;;;21.90;37.70;;;;;;5042231;28;20301;-79
2021/04/20 06:15:55;;;;;;;2.67;2.38;;;22.00;37.60;;;;;;5053071;28;20107;-78
2021/04/20 06:18:22;;;;;;;4.47;2.38;;;22.00;37.50;;;;;;5043236;28;20033;-78
2021/04/20 06:20:48;;;;;;;3.92;1.80;;;22.10;37.50;;;;;;5038605;28;20021;-78
2021/04/20 06:23:14;;;;;;;2.53;2.33;;;22.10;37.40;;;;;;5050038;28;20025;-76
2021/04/20 06:26:01;;;;;;;4.72;2.33;;;22.20;37.40;;;;;;5046033;28;20075;-78
2021/04/20 06:28:28;;;;;;;4.72;2.70;;;22.20;37.30;;;;;;5024967;28;20026;-76
2021/04/20 06:31:00;;;;;;;3.95;2.38;;;22.20;37.30;;;;;;5033194;28;20060;-77
2021/04/20 06:33:26;;;;;;;2.92;2.60;;;22.30;37.30;;;;;;5037614;28;20458;-78
2021/04/20 06:35:55;;;;;;;2.60;2.22;;;22.30;37.30;;;;;;5053367;28;20054;-77
2021/04/20 06:38:23;;;;;;;3.08;2.10;;;22.30;37.30;;;;;;5030067;28;20068;-77
2021/04/20 06:40:54;;;;;;;3.63;2.00;;;22.30;37.40;;;;;;5051533;28;20029;-78
2021/04/20 06:43:25;;;;;;;3.85;2.38;;;22.30;37.40;;;;;;5046643;28;20029;-77
2021/04/20 06:46:10;;;;;;;2.80;2.25;;;22.30;37.50;;;;;;5046410;28;20723;-80
2021/04/20 06:48:46;;;;;;;2.35;2.05;;;22.20;37.50;;;;;;5051339;28;20033;-78
2021/04/20 06:51:36;;;;;;;1.90;1.70;;;22.20;37.50;;;;;;5025961;28;20021;-77
2021/04/20 06:54:21;;;;;;;1.85;1.70;;;22.20;37.60;;;;;;5050356;28;20033;-77
2021/04/20 06:56:51;;;;;;;3.33;2.00;;;22.30;37.70;;;;;;5044908;28;20032;-76
2021/04/20 06:59:40;;;;;;;2.40;1.75;;;22.30;37.70;;;;;;5049105;28;20048;-77
2021/04/20 07:02:12;;;;;;;3.03;2.28;;;22.40;37.90;;;;;;5030659;28;20021;-76
2021/04/20 07:04:44;;;;;;;2.75;1.90;;;22.30;37.90;;;;;;5033964;28;20045;-76
2021/04/20 07:07:32;;;;;;;1.85;1.70;;;22.30;37.90;;;;;;5052013;28;20029;-75
2021/04/20 07:10:35;;;;;;;2.00;1.90;;;22.30;38.10;;;;;;5062242;28;20073;-76
2021/04/20 07:13:23;;;;;;;3.55;1.92;;;22.20;38.10;;;;;;5054920;28;20085;-77
2021/04/20 07:15:58;;;;;;;2.13;1.92;;;22.20;38.10;;;;;;5064653;28;20026;-76
2021/04/20 07:18:47;;;;;;;4.38;2.00;;;22.20;38.10;;;;;;5068674;28;20047;-76
2021/04/20 07:21:20;;;;;;;2.47;2.17;;;22.20;38.10;;;;;;5034785;28;20030;-75
2021/04/20 07:23:54;;;;;;;7.03;2.47;;;22.20;38.20;;;;;;5065856;28;20514;-76
2021/04/20 07:26:48;;;;;;;2.88;2.17;;;22.20;38.20;;;;;;5051493;28;20060;-75
2021/04/20 07:29:38;;;;;;;2.95;2.17;;;22.10;38.20;;;;;;5046776;28;20033;-77
2021/04/20 07:32:32;;;;;;;4.72;2.55;;;22.10;38.10;;;;;;5027314;28;20028;-75
2021/04/20 07:35:09;;;;;;;5.32;2.13;;;22.20;38.30;;;;;;5048854;28;20079;-78
2021/04/20 07:37:40;;;;;;;4.35;2.13;;;22.30;38.80;;;;;;5033582;28;20020;-76
2021/04/20 07:40:26;;;;;;;3.38;1.90;;;22.30;38.40;;;;;;5048628;28;20036;-76
2021/04/20 07:43:13;;;;;;;4.00;2.50;;;22.30;38.40;;;;;;5047331;28;20090;-75
2021/04/20 07:46:14;;;;;;;2.85;1.85;;;22.40;38.50;;;;;;5007495;28;20025;-75
2021/04/20 07:48:53;;;;;;;3.70;2.10;;;22.40;38.70;;;;;;5020406;28;20037;-77
2021/04/20 07:51:57;;;;;;;5.82;2.08;;;22.40;38.80;;;;;;5025844;28;20151;-76
2021/04/20 07:54:34;;;;;;;2.38;2.10;;;22.40;38.90;;;;;;5021240;28;20025;-75
2021/04/20 07:57:07;;;;;;;3.90;2.13;;;22.40;38.90;;;;;;5041925;28;20021;-74
2021/04/20 07:59:49;;;;;;;3.05;2.13;;;22.40;39.00;;;;;;5037813;28;20030;-74
2021/04/20 08:02:26;;;;;;;3.63;2.35;;;22.40;39.00;;;;;;5017980;28;20027;-75
2021/04/20 08:05:16;;;;;;;2.72;2.28;;;22.40;39.10;;;;;;5042359;28;20062;-73
2021/04/20 08:08:05;;;;;;;4.03;2.72;;;22.40;39.30;;;;;;5044352;28;20032;-76
2021/04/20 08:10:54;;;;;;;2.42;2.15;;;22.40;39.30;;;;;;5030036;28;20040;-76
2021/04/20 08:13:50;;;;;;;3.40;2.20;;;22.50;39.40;;;;;;5024086;28;20038;-79
2021/04/20 08:16:38;;;;;;;3.05;2.38;;;22.50;39.40;;;;;;5040180;28;20036;-78
2021/04/20 08:19:09;;;;;;;2.72;2.22;;;22.50;39.40;;;;;;5040421;28;20025;-75
2021/04/20 08:21:43;;;;;;;4.65;2.60;;;22.50;39.40;;;;;;5041887;28;20124;-74
2021/04/20 08:24:17;;;;;;;4.75;2.10;;;22.60;39.40;;;;;;5043305;28;20033;-74
2021/04/20 08:26:47;;;;;;;2.63;1.60;;;22.60;39.50;;;;;;5046464;28;20049;-78
2021/04/20 08:29:20;;;;;;;6.28;2.45;;;22.60;39.40;;;;;;5035337;28;20033;-79
2021/04/20 08:31:59;;;;;;;2.65;2.45;;;22.60;39.50;;;;;;5031585;28;20445;-77
2021/04/20 08:34:36;;;;;;;3.00;2.70;;;22.70;39.50;;;;;;5043296;28;20029;-76
2021/04/20 08:37:02;;;;;;;6.07;3.30;;;22.60;39.80;;;;;;5030868;28;20057;-75
2021/04/20 08:39:31;;;;;;;5.40;2.95;;;22.70;40.20;;;;;;5031911;28;20028;-79
2021/04/20 08:42:25;;;;;;;3.97;3.35;;;22.70;39.60;;;;;;5031617;28;20685;-74
2021/04/20 08:45:04;;;;;;;4.38;2.97;;;22.70;39.90;;;;;;5043864;28;20037;-77
2021/04/20 08:47:48;;;;;;;6.43;2.95;;;22.70;40.00;;;;;;5048032;28;20066;-75
2021/04/20 08:50:23;;;;;;;3.45;3.15;;;22.70;40.00;;;;;;5041716;28;20040;-75
2021/04/20 08:53:01;;;;;;;3.50;3.17;;;22.70;40.10;;;;;;5008626;28;20032;-75
2021/04/20 08:55:57;;;;;;;3.97;3.58;;;22.70;40.00;;;;;;5038333;28;20068;-76
2021/04/20 08:59:06;;;;;;;3.17;2.50;;;22.70;40.10;;;;;;5045449;28;20040;-75
2021/04/20 09:01:48;;;;;;;5.95;3.60;;;22.70;40.40;;;;;;5033036;28;20107;-74
2021/04/20 09:04:41;;;;;;;7.25;3.05;;;22.70;40.10;;;;;;5043451;28;20044;-76
2021/04/20 09:07:29;;;;;;;5.15;2.95;;;22.80;40.30;;;;;;5006199;28;20441;-75
2021/04/20 09:09:58;;;;;;;6.88;3.10;;;22.80;40.50;;;;;;5003811;28;20111;-75
2021/04/20 09:12:26;;;;;;;5.32;2.67;;;22.80;40.60;;;;;;5028580;28;20113;-76
2021/04/20 09:14:54;;;;;;;4.15;3.10;;;22.80;40.60;;;;;;5041710;28;20056;-74
2021/04/20 09:17:21;;;;;;;4.45;3.83;;;22.80;40.70;;;;;;5039370;28;20032;-78
2021/04/20 09:19:54;;;;;;;4.63;3.00;;;22.80;41.30;;;;;;5049023;28;20033;-75
2021/04/20 09:22:26;;;;;;;5.40;3.42;;;22.80;41.10;;;;;;5047074;28;20375;-74
2021/04/20 09:25:05;;;;;;;4.25;3.30;;;22.80;40.90;;;;;;5030765;28;20430;-76
2021/04/20 09:27:47;;;;;;;4.85;3.35;;;22.90;41.10;;;;;;5045327;28;20108;-74
2021/04/20 09:30:17;;;;;;;5.80;3.17;;;22.90;41.60;;;;;;5029205;28;20029;-77
2021/04/20 09:32:53;;;;;;;5.38;3.30;;;22.90;41.10;;;;;;5034426;28;20029;-77
2021/04/20 09:35:20;;;;;;;5.88;3.80;;;22.90;41.00;;;;;;5029716;28;20094;-75
2021/04/20 09:37:47;;;;;;;4.53;3.28;;;22.90;41.30;;;;;;5032701;28;20044;-74
2021/04/20 09:40:15;;;;;;;3.65;3.20;;;22.90;41.40;;;;;;5051588;28;20035;-74
2021/04/20 09:42:44;;;;;;;3.38;3.08;;;23.00;41.50;;;;;;5043710;28;20417;-76
2021/04/20 09:45:56;;;;;;;4.72;3.25;;;23.00;41.50;;;;;;5033044;28;20773;-77
2021/04/20 09:48:49;;;;;;;3.35;3.05;;;23.00;41.30;;;;;;4982151;28;20983;-79
2021/04/20 09:51:20;;;;;;;12.07;3.50;;;23.00;41.50;;;;;;4968875;28;20030;-75
2021/04/20 09:53:54;;;;;;;3.53;3.20;;;23.00;41.10;;;;;;5029063;28;20128;-79
2021/04/20 09:56:22;;;;;;;5.18;3.58;;;23.00;41.40;;;;;;5044938;28;20048;-78
2021/04/20 09:58:48;;;;;;;8.02;3.47;;;23.00;41.50;;;;;;5046531;28;20025;-78
2021/04/20 10:01:25;;;;;;;4.55;3.63;;;23.00;41.50;;;;;;5052893;28;20033;-77
2021/04/20 10:04:17;;;;;;;5.88;3.58;;;23.00;40.90;;;;;;5011979;28;20032;-76
2021/04/20 10:07:09;;;;;;;3.75;2.85;;;23.10;41.10;;;;;;5023715;28;20291;-79
2021/04/20 10:09:46;;;;;;;4.25;3.50;;;23.10;41.10;;;;;;5042719;28;20480;-77
2021/04/20 10:12:35;;;;;;;3.42;3.13;;;23.20;41.40;;;;;;5024304;28;20482;-79
2021/04/20 10:15:10;;;;;;;9.57;3.30;;;23.20;41.70;;;;;;5044134;28;20162;-73
2021/04/20 10:18:27;;;;;;;3.35;3.05;;;23.20;41.20;;;;;;5042529;28;20409;-76
2021/04/20 10:21:17;;;;;;;3.38;3.08;;;23.10;40.70;;;;;;5016237;28;20033;-75
2021/04/20 10:24:00;;;;;;;4.15;3.58;;;23.10;41.40;;;;;;5041705;28;21178;-76
2021/04/20 10:26:42;;;;;;;3.55;3.25;;;23.10;40.20;;;;;;5043399;28;20048;-76
2021/04/20 10:29:17;;;;;;;3.28;2.70;;;23.20;40.10;;;;;;5043304;28;20024;-77
2021/04/20 10:31:55;;;;;;;3.65;3.25;;;23.10;40.40;;;;;;5043874;28;20040;-75
2021/04/20 10:34:20;;;;;;;3.40;3.10;;;23.20;42.20;;;;;;5025875;28;20055;-75
2021/04/20 10:36:56;;;;;;;5.40;3.10;;;23.20;40.80;;;;;;5032021;28;20536;-78
2021/04/20 10:39:24;;;;;;;4.80;2.80;;;23.10;41.30;;;;;;5045626;28;20441;-76
2021/04/20 10:41:52;;;;;;;9.75;3.17;;;23.20;41.90;;;;;;5016771;28;20029;-79
2021/04/20 10:44:19;;;;;;;3.65;2.60;;;23.20;42.10;;;;;;5014947;28;20104;-77
2021/04/20 10:46:51;;;;;;;3.30;2.80;;;23.20;42.00;;;;;;5047367;28;20021;-77
2021/04/20 10:49:17;;;;;;;4.10;3.50;;;23.20;41.80;;;;;;5046356;28;20033;-75
2021/04/20 10:51:45;;;;;;;4.57;2.78;;;23.20;41.60;;;;;;5048135;28;20473;-76
2021/04/20 10:54:11;;;;;;;3.17;2.97;;;23.20;41.70;;;;;;5048251;28;20119;-72
2021/04/20 10:56:45;;;;;;;5.38;3.13;;;23.20;41.90;;;;;;5051874;28;20486;-76
2021/04/20 10:59:34;;;;;;;2.92;2.72;;;23.10;41.90;;;;;;5054735;28;20067;-77
2021/04/20 11:02:06;;;;;;;7.57;3.47;;;23.10;41.90;;;;;;5043338;28;20044;-76
2021/04/20 11:04:36;;;;;;;4.28;3.80;;;23.10;41.20;;;;;;5021964;28;20102;-78
2021/04/20 11:07:27;;;;;;;4.00;3.60;;;23.10;40.60;;;;;;5037339;28;20147;-76
2021/04/20 11:10:00;;;;;;;2.92;2.60;;;23.20;41.40;;;;;;5060122;28;20025;-77
2021/04/20 11:12:27;;;;;;;5.25;3.22;;;23.20;40.60;;;;;;5042854;28;20044;-78
2021/04/20 11:14:54;;;;;;;5.22;2.95;;;23.30;40.80;;;;;;5053048;28;20397;-77
2021/04/20 11:17:32;;;;;;;4.60;3.15;;;23.30;40.50;;;;;;5036677;28;20417;-76
2021/04/20 11:20:02;;;;;;;3.13;2.92;;;23.30;40.70;;;;;;5037904;28;20021;-76
2021/04/20 11:22:34;;;;;;;4.50;3.03;;;23.30;40.60;;;;;;5054322;28;20893;-76
2021/04/20 11:25:04;;;;;;;5.95;2.70;;;23.30;41.80;;;;;;5053918;28;20090;-75
2021/04/20 11:27:34;;;;;;;3.03;2.72;;;23.30;41.10;;;;;;5055544;28;20054;-79
2021/04/20 11:30:08;;;;;;;3.63;3.22;;;23.30;41.00;;;;;;5049676;28;20067;-76
2021/04/20 11:32:36;;;;;;;5.20;2.90;;;23.30;42.10;;;;;;5050527;28;20115;-77
2021/04/20 11:35:12;;;;;;;7.30;2.88;;;23.30;42.30;;;;;;5035457;28;20037;-77
2021/04/20 11:37:38;;;;;;;3.08;2.67;;;23.30;41.50;;;;;;5043426;28;20025;-76
2021/04/20 11:40:15;;;;;;;2.97;2.78;;;23.30;42.00;;;;;;5043712;28;20056;-76
2021/04/20 11:42:42;;;;;;;3.03;2.50;;;23.40;42.20;;;;;;5049857;28;20108;-78
2021/04/20 11:45:14;;;;;;;3.10;2.80;;;23.30;42.40;;;;;;5046851;28;20022;-77
2021/04/20 11:47:54;;;;;;;3.40;3.10;;;23.30;42.40;;;;;;5015514;28;20017;-78
2021/04/20 11:50:21;;;;;;;3.10;2.83;;;23.30;42.40;;;;;;5046164;28;20033;-76
2021/04/20 11:52:56;;;;;;;3.80;3.45;;;23.30;42.50;;;;;;5031286;28;20078;-75
2021/04/20 11:55:28;;;;;;;6.18;3.42;;;23.30;42.20;;;;;;5042473;28;20033;-78
2021/04/20 11:58:03;;;;;;;2.90;2.70;;;23.30;42.20;;;;;;5047639;28;20041;-75
2021/04/20 12:00:31;;;;;;;2.60;2.38;;;23.30;41.90;;;;;;5048126;28;20036;-75
2021/04/20 12:03:05;;;;;;;2.90;2.70;;;23.30;41.80;;;;;;5030259;28;20052;-77
2021/04/20 12:05:31;;;;;;;3.58;2.75;;;23.30;42.00;;;;;;5047978;28;22047;-75
2021/04/20 12:07:57;;;;;;;3.00;2.75;;;23.30;42.00;;;;;;5033834;28;20080;-77
2021/04/20 12:10:23;;;;;;;4.55;3.38;;;23.40;41.70;;;;;;5049445;28;20060;-76
2021/04/20 12:12:52;;;;;;;3.72;2.45;;;23.40;40.80;;;;;;5016332;28;20025;-77
2021/04/20 12:15:20;;;;;;;4.60;2.90;;;23.40;41.20;;;;;;5029653;28;20116;-79
2021/04/20 12:17:47;;;;;;;3.08;2.67;;;23.40;42.10;;;;;;5049674;28;20116;-77
2021/04/20 12:20:24;;;;;;;3.47;3.15;;;23.40;41.90;;;;;;5049951;28;20028;-75
2021/04/20 12:22:59;;;;;;;2.95;2.65;;;23.40;41.60;;;;;;5050580;28;20021;-77
2021/04/20 12:25:26;;;;;;;2.60;2.40;;;23.40;42.10;;;;;;5049536;28;20093;-76
2021/04/20 12:27:57;;;;;;;2.63;2.42;;;23.40;42.20;;;;;;5047274;28;20044;-76
2021/04/20 12:30:25;;;;;;;3.83;3.17;;;23.40;41.20;;;;;;5043926;28;20037;-74
2021/04/20 12:32:51;;;;;;;2.97;2.60;;;23.40;41.40;;;;;;5047038;28;20033;-76
2021/04/20 12:35:26;;;;;;;3.65;2.30;;;23.40;40.90;;;;;;5032699;28;20032;-75
2021/04/20 12:37:55;;;;;;;4.38;2.53;;;23.40;40.40;;;;;;5028458;28;20033;-78
2021/04/20 12:40:22;;;;;;;4.15;3.03;;;23.40;41.10;;;;;;5009809;28;20068;-75
2021/04/20 12:42:52;;;;;;;2.55;2.35;;;23.40;40.50;;;;;;5045682;28;20021;-78
2021/04/20 12:45:26;;;;;;;3.25;2.95;;;23.40;41.40;;;;;;5046629;28;20061;-80
2021/04/20 12:47:55;;;;;;;2.90;2.67;;;23.30;41.30;;;;;;5051838;28;20029;-77
2021/04/20 12:50:27;;;;;;;3.40;2.85;;;23.40;41.00;;;;;;5029994;28;20051;-79
2021/04/20 12:52:57;;;;;;;3.17;2.78;;;23.40;41.00;;;;;;5030764;28;20057;-77
2021/04/20 12:55:27;;;;;;;3.50;3.20;;;23.40;41.30;;;;;;5031374;28;20452;-76
2021/04/20 12:57:55;;;;;;;3.35;3.05;;;23.40;41.20;;;;;;5046539;28;20252;-77
2021/04/20 13:00:22;;;;;;;3.67;2.55;;;23.40;40.90;;;;;;5029332;28;20104;-75
2021/04/20 13:02:50;;;;;;;3.08;2.88;;;23.40;41.20;;;;;;5044945;28;20025;-77
2021/04/20 13:05:21;;;;;;;2.70;2.50;;;23.40;41.10;;;;;;5032502;28;20021;-76
2021/04/20 13:07:48;;;;;;;;;;;23.40;40.90;;;;;;5046739;28;20021;-76
2021/04/20 13:10:20;;;;;;;2.35;2.15;;;23.50;40.50;;;;;;5037884;28;19909;-75
2021/04/20 13:12:53;;;;;;;2.90;2.70;;;23.40;40.50;;;;;;5047385;28;20393;-75